Thursday, November 27, 2014
19:37 UTC
  |  Log In   |  Register Free
Airport Search:

Ormond Beach Municipal Airport
(KOMN)

FAA data valid effective November 13, 2014 - January 08, 2015 (unless otherwise noted).

 
 
 
 
 
 
 
 
 
 
 
 
 
 

Current Aviation Weather for Ormond Beach Municipal Airport (KOMN)

The most recent METAR observation for KOMN was updated at: 1919
METAR Summary (Translated METAR)
KOMN
271750Z 30011G16KT 10SM SKC 16/08 A3020
KDAB
271853Z 31011KT 10SM CLR 19/06 A3018 RMK AO2 SLP218 T01890056
(7.8 nm SE from KOMN)
KFIN
271750Z 33008G16KT 7SM CLR 17/05 A3020
(11.1 nm NW from KOMN)
TAF Summary (Translated TAF)
KDAB
(7.8 nm SE from KOMN)
271726Z 2718/2818 30013G21KT P6SM SKC FM272300 32009KT P6SM SKC
  Airport Weather Conditions for KOMN

 Current Weather at OMN
61° F
Clear
Northwest winds at 12.7 mph
OMN NOAA Radar

Pressure: 30.20 in
Humidity: 59%
Wind: from the Northwest at 12.7 gusting to 18.4 MPH (11 gusting to 16 KT)
Dew Point: 46.4°F
Visibility: 10.00 mi


Airport Weather Forecast for KOMN

Translated METAR and TAF for KOMN
Translated METAR for KOMN (1932 UTC 27 November 2014)
found at http://aviationweather.gov/adds/metars/
 
METAR text: KOMN 271750Z 30011G16KT 10SM SKC 16/08 A3020
Conditions at: KOMN (ORMOND BEACH VOR, FL, US) observed 1750 UTC 27 November 2014
Temperature: 16.0°C (61°F)
Dewpoint: 8.0°C (46°F) [RH = 59%]
Pressure (altimeter): 30.20 inches Hg (1022.8 mb)
Winds: from the WNW (300 degrees) at 13 MPH (11 knots; 5.7 m/s)
gusting to 18 MPH (16 knots; 8.3 m/s)
Visibility: 10 or more miles (16+ km)
Ceiling: at least 12,000 feet AGL
Clouds: clear skies
Weather: no significant weather observed at this time
Translated TAF for KOMN

There is no translated TAF available for this airport

Find All Airport Services Find A Hotel Find A Rental Car Find A Golf Course Find A Restaurant $100 Hamburger



FBO's on the Field
FBO Company Facility Photos Services Transportation Aviation Fuel Prices: Prices include tax
Catering Weather Repair Courtesy Rental Type 100LL JetA JetA+ MOGAS 8087
 
Sunrise Aviation

Currently rated 1.9 by 3 people
FS:Shell
Last Updated: Nov-04
Login to update fuel prices
SS:
Contact Sunrise AviationMore FBO Information
 
Add another FBO Facility Photos Catering Weather Repair Courtesy Rental Type 100LL JetA JetA+ MOGAS 8087
Services Transportation Aviation Fuel Prices: Prices include tax


model-print
model-print
model-print
model-print